Time;durP1;ratioP1;P1;durP2;ratioP2;P2;SDS_P1;SDS_P2;PMS_P1;PMS_P2;Temp;Humidity;BMP_temperature;BMP_pressure;BME280_temperature;BME280_humidity;BME280_pressure;Samples;Min_cycle;Max_cycle;Signal;HPM_P1;HPM_P2
2023/09/19 00:08:13;;;;;;;0.98;0.52;;;15.40;88.30;;;;;;5962960;23;20155;-82
2023/09/19 00:11:10;;;;;;;1.08;0.40;;;15.30;88.20;;;;;;5987753;23;20582;-83
2023/09/19 00:13:40;;;;;;;1.63;0.50;;;15.40;88.30;;;;;;6005082;23;20161;-82
2023/09/19 00:16:10;;;;;;;0.85;0.35;;;15.40;88.20;;;;;;6020182;23;20023;-76
2023/09/19 00:18:38;;;;;;;1.25;0.57;;;15.50;88.30;;;;;;5979362;23;20035;-78
2023/09/19 00:21:05;;;;;;;1.08;0.50;;;15.50;88.20;;;;;;5978842;23;20020;-78
2023/09/19 00:23:32;;;;;;;2.45;0.68;;;15.50;88.20;;;;;;6022346;23;20023;-79
2023/09/19 00:25:59;;;;;;;0.40;0.35;;;15.50;88.10;;;;;;6035771;23;20015;-78
2023/09/19 00:28:26;;;;;;;1.65;0.55;;;15.50;88.00;;;;;;6044974;23;20019;-79
2023/09/19 00:30:51;;;;;;;0.80;0.55;;;15.60;88.10;;;;;;6047146;23;20010;-78
2023/09/19 00:33:19;;;;;;;1.55;0.60;;;15.60;88.00;;;;;;6098121;23;20010;-78
2023/09/19 00:35:49;;;;;;;0.88;0.50;;;15.60;88.10;;;;;;6100735;23;20437;-78
2023/09/19 00:38:17;;;;;;;1.25;0.55;;;15.50;88.10;;;;;;6123119;23;20030;-78
2023/09/19 00:40:45;;;;;;;1.48;0.70;;;15.60;88.10;;;;;;6122495;23;20077;-78
2023/09/19 00:43:11;;;;;;;1.55;0.40;;;15.60;88.10;;;;;;6123648;23;20427;-78
2023/09/19 00:45:38;;;;;;;2.05;0.52;;;15.50;88.10;;;;;;6176332;23;20044;-79
2023/09/19 00:48:08;;;;;;;0.73;0.50;;;15.50;88.10;;;;;;6160162;23;20462;-78
2023/09/19 00:50:35;;;;;;;0.45;0.40;;;15.60;88.20;;;;;;6165247;23;20136;-78
2023/09/19 00:53:07;;;;;;;2.38;0.60;;;15.60;88.20;;;;;;6214317;23;20052;-78
2023/09/19 00:55:34;;;;;;;1.30;0.60;;;15.60;88.20;;;;;;6101280;23;20017;-78
2023/09/19 00:58:00;;;;;;;0.98;0.60;;;15.50;88.20;;;;;;6125079;23;20029;-79
2023/09/19 01:00:26;;;;;;;2.13;0.50;;;15.60;88.30;;;;;;6099933;23;20115;-78
2023/09/19 01:02:52;;;;;;;1.23;0.60;;;15.50;88.20;;;;;;6128876;23;20039;-79
2023/09/19 01:05:18;;;;;;;1.00;0.60;;;15.60;88.30;;;;;;6099447;23;20016;-78
2023/09/19 01:07:45;;;;;;;2.38;0.70;;;15.60;88.30;;;;;;6153430;23;20005;-78
2023/09/19 01:10:14;;;;;;;0.70;0.60;;;15.50;88.30;;;;;;6128323;23;20032;-79
2023/09/19 01:13:05;;;;;;;1.10;0.68;;;15.50;88.30;;;;;;6129911;23;20079;-79
2023/09/19 01:15:42;;;;;;;;;;;15.50;88.50;;;;;;6103264;23;20022;-79
2023/09/19 01:18:40;;;;;;;2.05;0.50;;;15.50;88.50;;;;;;6124291;23;19909;-78
2023/09/19 01:21:34;;;;;;;1.30;0.60;;;15.50;88.50;;;;;;6127080;23;20037;-79
2023/09/19 01:24:35;;;;;;;0.85;0.50;;;15.40;88.40;;;;;;6151998;23;20009;-78
2023/09/19 01:27:40;;;;;;;1.00;0.60;;;15.40;88.50;;;;;;6171052;23;20016;-78
2023/09/19 01:30:10;;;;;;;0.82;0.50;;;15.40;88.40;;;;;;6169089;23;20334;-78
2023/09/19 01:32:37;;;;;;;1.20;0.73;;;15.40;88.40;;;;;;6138548;23;20067;-78
2023/09/19 01:35:04;;;;;;;1.73;0.70;;;15.50;88.50;;;;;;6136889;23;20421;-79
2023/09/19 01:37:31;;;;;;;2.22;0.80;;;15.40;88.40;;;;;;6141697;23;20065;-77
2023/09/19 01:40:16;;;;;;;1.88;0.70;;;15.40;88.50;;;;;;6131359;23;20056;-77
2023/09/19 01:43:02;;;;;;;1.13;0.60;;;15.40;88.50;;;;;;6147996;23;20025;-80
2023/09/19 01:46:02;;;;;;;1.27;0.68;;;15.40;88.40;;;;;;6146833;23;20010;-78
2023/09/19 01:48:52;;;;;;;1.10;0.50;;;15.40;88.50;;;;;;6154346;23;20009;-78
2023/09/19 01:51:21;;;;;;;1.20;0.65;;;15.40;88.40;;;;;;6135296;23;20010;-79
2023/09/19 01:54:02;;;;;;;2.80;0.70;;;15.40;88.40;;;;;;6147624;23;20434;-76
2023/09/19 01:56:39;;;;;;;2.45;0.80;;;15.40;88.30;;;;;;6148062;23;20009;-78
2023/09/19 01:59:11;;;;;;;1.73;0.70;;;15.40;88.30;;;;;;6122423;23;20014;-78
2023/09/19 02:01:37;;;;;;;1.23;0.60;;;15.30;88.20;;;;;;6100502;23;20044;-80
2023/09/19 02:04:04;;;;;;;1.45;0.60;;;15.30;88.30;;;;;;6139605;23;20376;-80
2023/09/19 02:06:29;;;;;;;0.80;0.60;;;15.30;88.30;;;;;;6144111;23;20006;-79
2023/09/19 02:08:55;;;;;;;1.52;0.73;;;15.30;88.30;;;;;;6145583;23;20468;-78
2023/09/19 02:11:21;;;;;;;0.98;0.65;;;15.30;88.30;;;;;;6191553;23;20048;-77
2023/09/19 02:13:47;;;;;;;1.42;0.65;;;15.20;88.30;;;;;;6167557;23;20012;-79
2023/09/19 02:16:17;;;;;;;2.08;0.77;;;15.30;88.40;;;;;;6165846;23;20012;-78
2023/09/19 02:18:42;;;;;;;2.42;0.57;;;15.20;88.40;;;;;;6214799;23;20000;-77
2023/09/19 02:21:09;;;;;;;2.75;0.65;;;15.20;89.00;;;;;;6170364;23;20010;-78
2023/09/19 02:23:35;;;;;;;2.80;0.82;;;15.20;88.40;;;;;;6191909;23;20001;-79
2023/09/19 02:26:05;;;;;;;1.25;0.55;;;15.10;88.40;;;;;;6163844;23;20007;-79
2023/09/19 02:28:31;;;;;;;1.88;0.80;;;15.10;88.50;;;;;;6220489;23;19996;-78
2023/09/19 02:30:58;;;;;;;0.98;0.55;;;15.10;88.50;;;;;;6146058;23;20089;-78
2023/09/19 02:33:24;;;;;;;1.23;0.55;;;15.10;88.40;;;;;;6163641;23;20373;-77
2023/09/19 02:35:50;;;;;;;1.98;0.73;;;15.10;88.40;;;;;;6216489;23;20011;-78
2023/09/19 02:38:20;;;;;;;1.83;0.57;;;15.00;88.40;;;;;;6166834;23;20088;-77
2023/09/19 02:40:46;;;;;;;1.52;0.60;;;15.00;88.50;;;;;;6214144;23;20045;-78
2023/09/19 02:43:12;;;;;;;2.17;0.65;;;14.90;88.50;;;;;;6190113;23;20333;-78
2023/09/19 02:45:38;;;;;;;1.00;0.50;;;14.90;88.50;;;;;;6162593;23;20314;-78
2023/09/19 02:48:04;;;;;;;1.63;0.70;;;14.80;88.50;;;;;;6140982;23;20000;-77
2023/09/19 02:50:30;;;;;;;1.38;0.60;;;14.80;88.50;;;;;;6179009;23;20009;-76
2023/09/19 02:52:56;;;;;;;1.40;0.68;;;14.80;88.60;;;;;;6161359;23;20491;-77
2023/09/19 02:55:21;;;;;;;0.82;0.60;;;14.80;88.60;;;;;;6163749;23;20048;-78
2023/09/19 02:57:49;;;;;;;0.85;0.50;;;14.70;88.50;;;;;;6162906;23;20012;-78
2023/09/19 03:00:16;;;;;;;1.60;0.70;;;14.70;88.50;;;;;;6163561;23;20337;-77
2023/09/19 03:02:42;;;;;;;1.25;0.50;;;14.70;89.20;;;;;;6214244;23;20000;-77
2023/09/19 03:05:11;;;;;;;2.17;0.60;;;14.70;88.50;;;;;;6170678;23;20043;-77
2023/09/19 03:07:46;;;;;;;1.48;0.60;;;14.60;88.50;;;;;;6162280;23;20076;-77
2023/09/19 03:10:14;;;;;;;0.65;0.55;;;14.60;88.50;;;;;;6210698;23;20005;-77
2023/09/19 03:12:40;;;;;;;1.65;0.52;;;14.60;88.50;;;;;;6175780;23;20029;-76
2023/09/19 03:15:08;;;;;;;0.68;0.50;;;14.50;88.40;;;;;;6161073;23;20483;-77
2023/09/19 03:17:35;;;;;;;1.60;0.65;;;14.50;88.50;;;;;;6163285;23;20382;-78
2023/09/19 03:20:02;;;;;;;2.25;0.63;;;14.50;88.40;;;;;;6216458;23;20005;-77
2023/09/19 03:22:28;;;;;;;2.00;0.70;;;14.50;88.40;;;;;;6161203;23;20063;-77
2023/09/19 03:24:53;;;;;;;0.55;0.50;;;14.40;88.40;;;;;;6214593;23;20321;-77
2023/09/19 03:27:20;;;;;;;1.08;0.70;;;14.40;88.40;;;;;;6176997;23;20481;-77
2023/09/19 03:29:47;;;;;;;0.80;0.65;;;14.40;88.40;;;;;;6214836;23;20015;-77
2023/09/19 03:32:13;;;;;;;1.65;0.65;;;14.40;88.40;;;;;;6169021;23;20001;-78
2023/09/19 03:34:42;;;;;;;2.10;0.55;;;14.30;88.40;;;;;;6219735;23;20017;-78
2023/09/19 03:37:08;;;;;;;1.20;0.77;;;14.30;88.30;;;;;;6158417;23;20495;-77
2023/09/19 03:39:34;;;;;;;3.25;0.93;;;14.30;88.30;;;;;;6191130;23;20028;-78
2023/09/19 03:42:00;;;;;;;2.80;0.80;;;14.30;88.20;;;;;;6140534;23;20005;-78
2023/09/19 03:44:26;;;;;;;1.05;0.60;;;14.20;88.10;;;;;;6177831;23;20008;-77
2023/09/19 03:46:51;;;;;;;2.42;0.60;;;14.20;88.10;;;;;;6166541;23;20084;-77
2023/09/19 03:49:17;;;;;;;0.82;0.55;;;14.20;88.00;;;;;;6142162;23;20074;-78
2023/09/19 03:51:43;;;;;;;1.52;0.68;;;14.20;88.10;;;;;;6181608;23;20464;-77
2023/09/19 03:54:09;;;;;;;2.30;0.60;;;14.10;88.00;;;;;;6164999;23;20020;-76
2023/09/19 03:56:34;;;;;;;1.38;0.50;;;14.20;87.90;;;;;;6180614;23;20447;-77
2023/09/19 03:59:00;;;;;;;2.10;0.70;;;14.10;87.90;;;;;;6185469;23;20031;-77
2023/09/19 04:01:27;;;;;;;0.82;0.70;;;14.10;87.80;;;;;;6142901;23;19997;-77
2023/09/19 04:03:53;;;;;;;4.20;0.90;;;14.10;87.80;;;;;;6181750;23;20001;-77
2023/09/19 04:06:19;;;;;;;3.13;0.80;;;14.20;87.80;;;;;;6167529;23;20036;-77
2023/09/19 04:08:47;;;;;;;0.70;0.40;;;14.00;88.20;;;;;;6215669;23;20007;-77
2023/09/19 04:11:13;;;;;;;1.77;0.60;;;14.10;87.70;;;;;;6159425;23;19984;-76
2023/09/19 04:13:38;;;;;;;1.38;0.60;;;14.10;87.70;;;;;;6217774;23;20043;-77
2023/09/19 04:16:04;;;;;;;1.33;0.60;;;14.00;88.20;;;;;;6173494;23;20582;-78
2023/09/19 04:18:33;;;;;;;1.30;0.68;;;14.10;87.60;;;;;;6141750;23;20011;-77
2023/09/19 04:21:02;;;;;;;1.42;0.70;;;14.00;87.50;;;;;;6172878;23;20071;-77
2023/09/19 04:23:28;;;;;;;3.10;0.95;;;14.00;87.40;;;;;;6224423;23;20001;-77
2023/09/19 04:25:54;;;;;;;1.77;0.70;;;14.00;87.40;;;;;;6222506;23;20440;-78
2023/09/19 04:28:20;;;;;;;1.23;0.80;;;14.00;87.30;;;;;;6168947;23;20001;-77
2023/09/19 04:30:45;;;;;;;2.08;0.40;;;14.10;87.30;;;;;;6216837;23;20405;-77
2023/09/19 04:33:14;;;;;;;0.60;0.50;;;14.00;87.20;;;;;;6178048;23;20009;-77
2023/09/19 04:35:42;;;;;;;1.13;0.50;;;14.00;87.10;;;;;;6179114;23;20009;-78
2023/09/19 04:38:08;;;;;;;1.30;0.57;;;14.00;87.10;;;;;;6139768;23;20043;-77
2023/09/19 04:40:34;;;;;;;1.77;0.43;;;14.00;87.10;;;;;;6165923;23;20091;-77
2023/09/19 04:43:00;;;;;;;1.60;0.70;;;14.00;87.00;;;;;;6167680;23;20004;-77
2023/09/19 04:45:27;;;;;;;0.50;0.50;;;14.00;87.00;;;;;;6187995;23;20008;-77
2023/09/19 04:47:54;;;;;;;4.35;0.95;;;14.00;86.90;;;;;;6224068;23;20020;-75
2023/09/19 04:50:21;;;;;;;0.93;0.50;;;14.00;86.80;;;;;;6170057;23;20329;-77
2023/09/19 04:52:50;;;;;;;2.33;0.68;;;14.10;86.80;;;;;;6174160;23;20004;-77
2023/09/19 04:55:18;;;;;;;2.08;0.60;;;14.00;86.60;;;;;;6222587;23;20008;-77
2023/09/19 04:57:49;;;;;;;1.90;0.82;;;14.00;86.50;;;;;;6225816;23;20008;-77
2023/09/19 05:00:17;;;;;;;;;;;14.00;86.50;;;;;;6229794;23;20005;-78
2023/09/19 05:02:43;;;;;;;1.90;0.50;;;14.00;86.50;;;;;;6227827;23;19919;-78
2023/09/19 05:05:10;;;;;;;1.20;0.60;;;14.00;86.40;;;;;;6225672;23;20017;-78
2023/09/19 05:07:37;;;;;;;0.70;0.50;;;14.00;86.30;;;;;;6227281;23;20008;-78
2023/09/19 05:10:06;;;;;;;2.00;0.60;;;14.10;86.30;;;;;;6225700;23;20005;-77
2023/09/19 05:12:35;;;;;;;1.02;0.45;;;14.00;86.30;;;;;;6175173;23;20004;-77
2023/09/19 05:15:05;;;;;;;0.90;0.60;;;14.00;86.30;;;;;;6173017;23;20032;-77
2023/09/19 05:17:31;;;;;;;2.42;0.60;;;14.00;86.30;;;;;;6146882;23;20357;-77
2023/09/19 05:19:58;;;;;;;1.38;0.70;;;14.00;86.30;;;;;;6136754;23;20082;-78
2023/09/19 05:22:26;;;;;;;0.98;0.45;;;14.00;86.30;;;;;;6134067;23;20012;-78
2023/09/19 05:24:52;;;;;;;0.70;0.43;;;14.00;86.20;;;;;;6134027;23;20021;-76
2023/09/19 05:27:20;;;;;;;4.05;0.70;;;14.00;86.20;;;;;;6139702;23;20009;-78
2023/09/19 05:29:46;;;;;;;0.90;0.55;;;14.00;86.20;;;;;;6163087;23;20519;-77
2023/09/19 05:32:12;;;;;;;1.92;0.55;;;14.00;86.10;;;;;;6135525;23;19990;-77
2023/09/19 05:34:39;;;;;;;1.50;0.60;;;14.00;86.10;;;;;;6171581;23;20431;-76
2023/09/19 05:37:07;;;;;;;1.00;0.40;;;14.10;86.10;;;;;;6122931;23;19989;-77
2023/09/19 05:39:33;;;;;;;1.65;0.57;;;14.00;86.10;;;;;;6145175;23;20393;-77
2023/09/19 05:42:00;;;;;;;1.52;0.60;;;14.10;86.10;;;;;;6106445;23;20039;-75
2023/09/19 05:44:26;;;;;;;3.97;0.93;;;14.10;86.10;;;;;;6126749;23;20001;-75
2023/09/19 05:46:52;;;;;;;1.65;0.50;;;14.10;86.00;;;;;;6129040;23;20013;-77
2023/09/19 05:49:18;;;;;;;3.60;0.65;;;14.10;85.90;;;;;;6138493;23;20002;-77
2023/09/19 05:51:43;;;;;;;1.70;0.60;;;14.10;85.80;;;;;;6188167;23;20005;-78
2023/09/19 05:54:11;;;;;;;1.00;0.60;;;14.10;85.80;;;;;;6158485;23;20037;-78
2023/09/19 05:56:36;;;;;;;2.92;0.82;;;14.20;85.70;;;;;;6170713;23;20032;-77
2023/09/19 05:59:04;;;;;;;1.77;0.70;;;14.20;85.70;;;;;;6178023;23;19984;-76
2023/09/19 06:01:32;;;;;;;0.80;0.45;;;14.20;85.60;;;;;;6171476;23;20508;-77
2023/09/19 06:03:59;;;;;;;0.50;0.40;;;14.30;85.70;;;;;;6149676;23;20422;-78
2023/09/19 06:06:25;;;;;;;1.02;0.50;;;14.30;85.60;;;;;;6147411;23;20033;-78
2023/09/19 06:08:51;;;;;;;1.45;0.65;;;14.30;86.00;;;;;;6181182;23;20356;-79
2023/09/19 06:11:20;;;;;;;1.55;0.63;;;14.30;85.60;;;;;;6135303;23;20040;-77
2023/09/19 06:13:47;;;;;;;2.80;0.75;;;14.30;85.60;;;;;;6224690;23;20005;-78
2023/09/19 06:16:13;;;;;;;0.77;0.50;;;14.40;86.20;;;;;;6183582;23;20004;-79
2023/09/19 06:18:39;;;;;;;3.05;0.70;;;14.30;85.50;;;;;;6171029;23;20031;-79
2023/09/19 06:21:07;;;;;;;1.00;0.50;;;14.40;85.60;;;;;;6180671;23;20088;-79
2023/09/19 06:23:34;;;;;;;1.08;0.63;;;14.40;85.50;;;;;;6180257;23;20009;-78
2023/09/19 06:26:00;;;;;;;2.13;0.57;;;14.50;85.60;;;;;;6194992;23;20437;-80
2023/09/19 06:28:47;;;;;;;2.20;0.70;;;14.50;85.60;;;;;;6170818;23;20012;-85
2023/09/19 06:31:45;;;;;;;2.20;0.73;;;14.50;85.50;;;;;;6102650;23;20053;-84
2023/09/19 06:34:11;;;;;;;1.88;0.60;;;14.40;85.40;;;;;;6158518;23;20024;-80
2023/09/19 06:36:40;;;;;;;1.60;0.63;;;14.50;85.40;;;;;;6155964;23;20009;-80
2023/09/19 06:39:06;;;;;;;1.33;0.43;;;14.50;85.40;;;;;;6077041;23;19999;-77
2023/09/19 06:41:35;;;;;;;2.13;0.82;;;14.60;85.40;;;;;;6024092;23;20018;-79
2023/09/19 06:44:26;;;;;;;0.93;0.50;;;14.60;85.40;;;;;;6039857;23;20015;-79
2023/09/19 06:46:55;;;;;;;2.22;0.90;;;14.60;85.40;;;;;;5981956;23;20019;-77
2023/09/19 06:49:21;;;;;;;1.45;0.50;;;14.70;85.30;;;;;;5978594;23;20017;-79
2023/09/19 06:55:11;;;;;;;1.13;0.60;;;14.70;85.30;;;;;;5972745;23;20084;-78
2023/09/19 06:57:37;;;;;;;1.75;0.75;;;14.80;85.30;;;;;;5965107;23;20043;-75
2023/09/19 07:00:09;;;;;;;1.50;0.50;;;14.70;85.30;;;;;;5980550;23;20025;-77
2023/09/19 07:02:35;;;;;;;1.80;0.77;;;14.80;85.30;;;;;;5920757;23;20009;-78
2023/09/19 07:05:05;;;;;;;1.98;0.73;;;14.80;85.20;;;;;;6011716;23;20086;-77
2023/09/19 07:07:34;;;;;;;2.22;0.70;;;14.80;85.20;;;;;;6001908;23;20014;-77
2023/09/19 07:10:02;;;;;;;2.03;0.70;;;14.90;85.20;;;;;;6008987;23;20442;-77
2023/09/19 07:22:44;;;;;;;2.38;0.90;;;15.00;85.10;;;;;;5998030;23;20360;-81
2023/09/19 07:25:14;;;;;;;1.88;0.77;;;15.10;85.10;;;;;;5936368;23;20016;-83
2023/09/19 07:32:13;;;;;;;1.63;0.80;;;15.10;85.00;;;;;;5812794;24;20122;-79
2023/09/19 07:46:22;;;;;;;2.45;0.70;;;15.30;84.60;;;;;;5760379;24;20030;-84
2023/09/19 07:53:30;;;;;;;2.17;0.73;;;15.50;84.60;;;;;;5767208;24;20049;-86
2023/09/19 08:17:45;;;;;;;1.13;0.47;;;15.80;84.30;;;;;;5775044;24;20056;-78
2023/09/19 08:20:22;;;;;;;2.80;0.63;;;15.90;84.30;;;;;;5841432;24;20057;-79
2023/09/19 08:25:45;;;;;;;2.28;0.80;;;15.90;84.10;;;;;;5786811;24;20020;-78
2023/09/19 08:28:30;;;;;;;2.70;0.90;;;16.00;84.20;;;;;;5786810;24;20032;-80
2023/09/19 08:31:06;;;;;;;3.58;1.17;;;16.10;84.20;;;;;;5815265;24;20035;-79
2023/09/19 08:40:43;;;;;;;2.08;0.75;;;16.30;83.90;;;;;;5865276;24;20032;-78
2023/09/19 08:46:49;;;;;;;2.08;0.80;;;16.50;83.70;;;;;;5780722;24;20036;-81
2023/09/19 08:53:42;;;;;;;2.30;0.70;;;16.70;83.60;;;;;;5673192;25;20095;-77
2023/09/19 08:56:18;;;;;;;3.45;1.20;;;16.70;83.30;;;;;;5736465;24;20024;-79
2023/09/19 08:59:00;;;;;;;1.90;0.82;;;16.80;83.30;;;;;;5736205;24;20028;-79
2023/09/19 09:02:07;;;;;;;3.70;1.30;;;16.80;83.30;;;;;;5738124;24;20089;-82
2023/09/19 09:04:38;;;;;;;3.97;1.00;;;16.80;83.20;;;;;;5818123;24;20038;-80
2023/09/19 09:07:16;;;;;;;2.95;0.93;;;16.80;83.30;;;;;;5792941;24;20093;-81
2023/09/19 09:13:42;;;;;;;3.00;0.90;;;16.90;83.30;;;;;;5841084;24;20022;-79
2023/09/19 09:20:29;;;;;;;4.40;1.17;;;17.00;83.10;;;;;;5826372;24;20050;-81
2023/09/19 09:29:49;;;;;;;1.65;0.80;;;17.10;82.70;;;;;;5878355;24;20061;-82
2023/09/19 09:32:36;;;;;;;2.10;0.90;;;17.30;82.80;;;;;;5878139;24;20030;-80
2023/09/19 09:35:10;;;;;;;3.60;0.98;;;17.40;82.50;;;;;;5896802;24;20040;-80
2023/09/19 09:38:09;;;;;;;3.53;0.90;;;17.50;82.20;;;;;;5859118;24;20139;-82
2023/09/19 09:41:09;;;;;;;2.10;0.80;;;17.60;82.00;;;;;;5844943;24;20049;-80
2023/09/19 09:43:40;;;;;;;2.08;0.90;;;17.70;81.90;;;;;;5855583;24;20053;-78
2023/09/19 09:51:57;;;;;;;3.03;1.00;;;17.90;81.50;;;;;;5838645;24;20025;-82
2023/09/19 09:54:33;;;;;;;3.45;1.05;;;17.90;81.40;;;;;;5843864;24;20105;-79
2023/09/19 10:03:47;;;;;;;2.75;1.17;;;18.00;81.40;;;;;;5932390;24;20024;-80
2023/09/19 10:06:34;;;;;;;2.35;1.13;;;18.00;81.20;;;;;;5888329;24;20009;-80
2023/09/19 10:09:29;;;;;;;2.65;1.10;;;18.00;81.00;;;;;;5886121;24;20076;-81
2023/09/19 10:12:08;;;;;;;2.92;1.00;;;18.10;81.10;;;;;;5900399;24;20052;-80
2023/09/19 10:14:47;;;;;;;2.58;1.00;;;18.10;81.00;;;;;;5927456;24;20096;-80
2023/09/19 10:18:08;;;;;;;2.83;1.00;;;18.10;81.00;;;;;;5899433;24;20029;-82
2023/09/19 10:26:30;;;;;;;2.53;1.05;;;18.20;80.90;;;;;;5767546;24;20500;-79
2023/09/19 10:29:07;;;;;;;3.45;1.00;;;18.20;80.70;;;;;;5699862;24;20105;-81
2023/09/19 10:35:40;;;;;;;4.07;1.38;;;18.30;80.70;;;;;;5713092;25;20028;-82
2023/09/19 10:39:23;;;;;;;1.83;0.90;;;18.30;80.30;;;;;;5761927;24;20438;-86
2023/09/19 10:42:19;;;;;;;4.53;1.23;;;18.30;80.20;;;;;;5764043;24;20385;-82
2023/09/19 10:45:15;;;;;;;4.03;1.17;;;18.50;80.00;;;;;;5750503;24;20031;-81
2023/09/19 10:47:47;;;;;;;2.65;1.25;;;18.40;79.90;;;;;;5703212;25;20073;-80
2023/09/19 10:50:22;;;;;;;4.35;1.27;;;18.40;79.80;;;;;;5725127;25;20033;-79
2023/09/19 10:53:04;;;;;;;5.55;1.40;;;18.40;79.80;;;;;;5683355;25;20025;-81
2023/09/19 10:55:50;;;;;;;3.83;1.42;;;18.40;79.70;;;;;;5682574;25;20084;-81
2023/09/19 11:02:23;;;;;;;2.45;0.90;;;18.50;79.60;;;;;;5853826;24;20029;-90
2023/09/19 11:04:49;;;;;;;3.72;1.02;;;18.50;79.70;;;;;;5871316;24;20054;-78
2023/09/19 11:07:24;;;;;;;3.03;1.05;;;18.50;79.50;;;;;;5870642;24;20070;-80
2023/09/19 11:14:08;;;;;;;2.30;1.17;;;18.50;79.50;;;;;;5950775;24;20013;-81
2023/09/19 11:20:00;;;;;;;3.30;1.13;;;18.50;79.60;;;;;;5923783;24;20076;-80
2023/09/19 11:23:10;;;;;;;3.67;1.27;;;18.50;79.60;;;;;;5924947;24;20029;-81
2023/09/19 11:26:26;;;;;;;3.43;1.30;;;18.50;79.30;;;;;;5927544;24;20162;-83
2023/09/19 11:29:35;;;;;;;2.17;1.13;;;18.60;79.20;;;;;;5931143;24;20231;-80
2023/09/19 11:32:05;;;;;;;3.75;1.27;;;18.70;78.70;;;;;;5922076;24;20029;-79
2023/09/19 11:38:08;;;;;;;1.83;0.88;;;18.80;78.50;;;;;;5903090;24;20561;-80
2023/09/19 11:41:04;;;;;;;3.05;1.10;;;18.80;78.50;;;;;;5970858;23;20123;-81
2023/09/19 11:43:35;;;;;;;1.92;1.00;;;18.90;78.60;;;;;;5957356;24;20016;-79
2023/09/19 11:46:02;;;;;;;2.20;1.00;;;18.90;78.50;;;;;;5966275;23;20382;-78
2023/09/19 11:48:53;;;;;;;3.78;1.10;;;19.00;78.40;;;;;;5902498;24;20028;-80
2023/09/19 11:51:28;;;;;;;;;;;18.90;78.10;;;;;;5985837;23;20048;-78
2023/09/19 11:53:55;;;;;;;2.58;1.00;;;19.00;78.20;;;;;;5987729;23;19981;-79
2023/09/19 11:56:25;;;;;;;2.15;1.00;;;19.00;78.10;;;;;;6033212;23;20006;-79
2023/09/19 11:58:59;;;;;;;1.70;0.80;;;19.00;78.10;;;;;;6034124;23;20465;-80
2023/09/19 12:01:34;;;;;;;2.67;0.93;;;19.00;78.20;;;;;;6039786;23;20102;-78
2023/09/19 12:04:04;;;;;;;3.28;1.10;;;19.20;78.10;;;;;;6010247;23;20555;-79
2023/09/19 12:06:38;;;;;;;2.15;1.00;;;19.30;77.80;;;;;;6058824;23;20007;-80
2023/09/19 12:09:31;;;;;;;1.75;0.80;;;19.40;77.50;;;;;;6001431;23;20045;-77
2023/09/19 12:12:01;;;;;;;3.55;1.25;;;19.50;77.00;;;;;;5954194;24;20009;-79
2023/09/19 12:14:33;;;;;;;1.83;1.00;;;19.60;76.70;;;;;;5962414;24;20032;-78
2023/09/19 12:17:03;;;;;;;1.13;0.75;;;19.50;76.70;;;;;;5977258;23;20060;-78
2023/09/19 12:19:29;;;;;;;0.93;0.70;;;19.40;76.80;;;;;;5904811;24;20021;-79
2023/09/19 12:22:04;;;;;;;1.40;0.80;;;19.50;77.20;;;;;;5901461;24;20033;-77
2023/09/19 12:24:32;;;;;;;2.70;1.10;;;19.50;77.00;;;;;;5906282;24;20004;-77
2023/09/19 12:27:05;;;;;;;3.80;1.00;;;19.50;76.80;;;;;;5942542;24;20016;-77
2023/09/19 12:29:44;;;;;;;1.75;1.00;;;19.70;76.80;;;;;;5946366;24;20044;-77
2023/09/19 12:32:10;;;;;;;2.88;0.98;;;19.80;76.60;;;;;;5960410;23;20024;-81
2023/09/19 12:34:59;;;;;;;3.28;0.98;;;20.00;76.00;;;;;;5929390;24;20134;-81
2023/09/19 12:37:36;;;;;;;1.60;0.90;;;19.90;75.60;;;;;;5949129;24;20024;-82
2023/09/19 12:40:17;;;;;;;2.72;0.85;;;19.90;75.70;;;;;;5909578;24;20020;-80
2023/09/19 12:42:44;;;;;;;2.60;0.70;;;19.90;75.70;;;;;;5994186;23;20026;-79
2023/09/19 12:45:13;;;;;;;1.50;0.80;;;19.80;76.10;;;;;;5995255;23;20456;-80
2023/09/19 12:47:40;;;;;;;1.13;0.60;;;19.80;76.30;;;;;;6016537;23;20069;-81
2023/09/19 12:50:29;;;;;;;1.17;0.63;;;19.70;76.50;;;;;;6040508;23;20568;-81
2023/09/19 12:53:00;;;;;;;2.38;0.73;;;19.60;76.70;;;;;;6038767;23;20030;-80
2023/09/19 12:55:28;;;;;;;;;;;19.60;76.80;;;;;;6033408;23;20097;-80
2023/09/19 12:58:12;;;;;;;1.55;0.63;;;19.50;76.80;;;;;;6040366;23;19909;-76
2023/09/19 13:00:41;;;;;;;1.00;0.68;;;19.50;76.80;;;;;;6091205;23;20015;-76
2023/09/19 13:03:31;;;;;;;1.38;0.70;;;19.40;76.80;;;;;;6093885;23;20022;-77
2023/09/19 13:06:00;;;;;;;1.15;0.80;;;19.40;76.80;;;;;;6093204;23;20022;-77
2023/09/19 13:08:30;;;;;;;2.53;0.75;;;19.30;76.80;;;;;;6109063;23;20077;-78
2023/09/19 13:11:20;;;;;;;2.30;0.60;;;19.30;76.90;;;;;;6041657;23;20108;-77
2023/09/19 13:14:15;;;;;;;0.82;0.65;;;19.40;76.80;;;;;;6040561;23;20463;-77
2023/09/19 13:17:15;;;;;;;3.50;0.90;;;19.40;76.70;;;;;;6038828;23;20014;-78
2023/09/19 13:19:49;;;;;;;2.35;0.90;;;19.40;76.50;;;;;;6046206;23;20018;-80
2023/09/19 13:22:39;;;;;;;2.00;0.77;;;19.50;76.40;;;;;;6041572;23;20023;-77
2023/09/19 13:25:13;;;;;;;2.17;0.80;;;19.50;76.30;;;;;;6072552;23;20007;-76
2023/09/19 13:27:41;;;;;;;1.92;0.80;;;19.50;76.20;;;;;;6000936;23;20243;-77
2023/09/19 13:30:09;;;;;;;1.25;0.63;;;19.50;76.30;;;;;;6067765;23;20053;-79
2023/09/19 13:32:35;;;;;;;2.22;0.80;;;19.60;76.20;;;;;;6039581;23;20042;-79
2023/09/19 13:35:05;;;;;;;1.73;0.43;;;19.50;76.10;;;;;;6029185;23;20107;-76
2023/09/19 13:38:34;;;;;;;1.52;0.50;;;19.50;76.20;;;;;;5979737;23;20087;-82
2023/09/19 13:48:21;;;;;;;3.92;0.60;;;19.50;76.40;;;;;;5855849;24;20036;-80
2023/09/19 13:51:38;;;;;;;1.73;0.60;;;19.40;76.50;;;;;;5820462;24;20105;-83
2023/09/19 13:54:06;;;;;;;1.02;0.40;;;19.30;76.70;;;;;;5819185;24;20060;-80
2023/09/19 13:56:34;;;;;;;2.65;0.73;;;19.40;76.80;;;;;;5816843;24;20122;-76
2023/09/19 13:59:06;;;;;;;2.90;0.68;;;19.30;76.60;;;;;;5821736;24;20050;-80
2023/09/19 14:01:46;;;;;;;3.42;0.60;;;19.40;76.30;;;;;;5850621;24;20457;-79
2023/09/19 14:04:15;;;;;;;2.10;0.70;;;19.40;76.20;;;;;;5875912;24;20022;-79
2023/09/19 14:06:47;;;;;;;0.50;0.50;;;19.50;75.90;;;;;;5889405;24;20030;-79
2023/09/19 14:09:19;;;;;;;0.63;0.40;;;19.50;75.50;;;;;;5863279;24;20031;-79
2023/09/19 14:11:47;;;;;;;1.80;0.70;;;19.70;75.50;;;;;;5863957;24;20428;-80
2023/09/19 14:14:13;;;;;;;1.65;0.60;;;19.80;75.30;;;;;;5908872;23;20009;-81
2023/09/19 14:17:09;;;;;;;0.70;0.55;;;19.80;75.10;;;;;;5983107;23;20022;-80
2023/09/19 14:19:45;;;;;;;1.75;0.60;;;19.90;75.00;;;;;;5957221;23;20052;-81
2023/09/19 14:22:53;;;;;;;0.88;0.52;;;19.90;75.00;;;;;;5960875;23;20187;-79
2023/09/19 14:25:28;;;;;;;1.30;0.52;;;20.00;74.90;;;;;;5879736;24;20482;-78
2023/09/19 14:27:56;;;;;;;0.88;0.70;;;20.00;74.90;;;;;;5867160;24;20052;-80
2023/09/19 14:30:23;;;;;;;1.45;0.43;;;20.00;74.80;;;;;;5850187;24;20032;-78
2023/09/19 14:32:49;;;;;;;2.13;0.63;;;20.00;74.80;;;;;;5888904;24;20421;-78
2023/09/19 14:35:22;;;;;;;1.35;0.57;;;20.00;74.80;;;;;;5899170;24;20113;-80
2023/09/19 14:41:07;;;;;;;1.00;0.55;;;19.80;75.10;;;;;;5926676;24;20041;-80
2023/09/19 14:43:48;;;;;;;3.72;0.90;;;19.70;75.30;;;;;;5906740;24;20031;-80
2023/09/19 14:46:14;;;;;;;;;;;19.80;75.40;;;;;;5907244;24;20021;-78
2023/09/19 14:48:42;;;;;;;0.57;0.47;;;19.70;75.50;;;;;;5978671;23;19903;-80
2023/09/19 14:51:13;;;;;;;1.13;0.52;;;19.70;75.50;;;;;;5926678;24;20087;-78
2023/09/19 14:53:42;;;;;;;1.25;0.50;;;19.70;75.50;;;;;;5904589;24;20044;-80
2023/09/19 15:00:11;;;;;;;1.77;0.90;;;19.70;75.30;;;;;;5850358;24;20970;-78
2023/09/19 15:02:40;;;;;;;2.05;0.70;;;19.60;75.20;;;;;;5855723;24;20040;-78
2023/09/19 15:05:22;;;;;;;1.75;0.60;;;19.60;75.20;;;;;;5880935;24;20053;-79
2023/09/19 15:08:13;;;;;;;1.42;0.77;;;19.60;75.10;;;;;;5801406;24;20105;-81
2023/09/19 15:11:08;;;;;;;;;;;19.60;75.20;;;;;;5819568;24;20030;-81
2023/09/19 15:13:36;;;;;;;1.45;0.57;;;19.50;75.30;;;;;;5866084;24;19903;-80
2023/09/19 15:16:08;;;;;;;1.55;0.68;;;19.50;75.50;;;;;;5851649;24;20349;-81
2023/09/19 15:18:38;;;;;;;1.23;0.70;;;19.50;75.50;;;;;;5844501;24;20018;-80
2023/09/19 15:21:05;;;;;;;2.17;0.75;;;19.50;75.60;;;;;;5821944;24;20023;-82
2023/09/19 15:23:34;;;;;;;1.65;0.70;;;19.40;75.70;;;;;;5799620;24;20015;-80
2023/09/19 15:26:01;;;;;;;1.25;0.60;;;19.40;75.70;;;;;;5873898;24;20091;-83
2023/09/19 15:28:33;;;;;;;1.75;0.60;;;19.30;75.70;;;;;;5850227;24;20123;-81
2023/09/19 15:31:03;;;;;;;1.48;0.60;;;19.30;75.80;;;;;;5880475;24;20021;-81
2023/09/19 15:33:34;;;;;;;0.65;0.50;;;19.30;75.80;;;;;;5992578;23;20116;-80
2023/09/19 15:51:27;;;;;;;2.03;0.80;;;19.20;76.10;;;;;;6140037;23;20134;-77
2023/09/19 15:54:41;;;;;;;1.65;0.60;;;19.20;76.20;;;;;;6139408;23;20017;-79
2023/09/19 15:57:12;;;;;;;1.77;0.60;;;19.20;76.10;;;;;;6125734;23;20013;-77
2023/09/19 16:00:17;;;;;;;1.17;0.52;;;19.20;76.10;;;;;;6103663;23;20021;-78
2023/09/19 16:03:48;;;;;;;1.45;0.60;;;19.20;76.10;;;;;;6009284;23;20023;-78